createdAt,value
2019-04-25T00:01:11.560Z,89.47
2019-04-25T00:03:55.200Z,71.40
2019-04-25T00:06:39.183Z,72.63
2019-04-25T00:09:22.895Z,77.73
2019-04-25T00:12:02.961Z,85.87
2019-04-25T00:14:45.810Z,85.00
2019-04-25T00:17:27.155Z,76.20
2019-04-25T00:20:09.468Z,84.40
2019-04-25T00:22:55.727Z,96.72
2019-04-25T00:25:54.284Z,78.67
2019-04-25T00:28:37.345Z,73.60
2019-04-25T00:31:19.778Z,79.80
2019-04-25T00:34:08.045Z,83.50
2019-04-25T00:36:53.092Z,88.53
2019-04-25T00:39:35.724Z,95.67
2019-04-25T00:42:14.452Z,91.77
2019-04-25T00:44:55.914Z,79.97
2019-04-25T00:47:42.421Z,86.90
2019-04-25T00:50:24.825Z,78.37
2019-04-25T00:53:07.072Z,74.63
2019-04-25T00:55:52.450Z,86.67
2019-04-25T00:58:46.741Z,81.73
2019-04-25T01:01:46.511Z,92.67
2019-04-25T01:04:28.110Z,89.63
2019-04-25T01:07:09.878Z,85.83
2019-04-25T01:09:54.509Z,81.33
2019-04-25T01:12:39.485Z,83.70
2019-04-25T01:15:21.671Z,82.07
2019-04-25T01:18:02.758Z,80.40
2019-04-25T01:20:43.430Z,94.73
2019-04-25T01:23:25.348Z,97.50
2019-04-25T01:26:08.487Z,105.80
2019-04-25T01:28:51.919Z,94.07
2019-04-25T01:31:33.601Z,96.90
2019-04-25T01:34:14.474Z,75.20
2019-04-25T01:37:01.056Z,84.43
2019-04-25T01:39:48.894Z,77.10
2019-04-25T01:42:50.333Z,75.73
2019-04-25T01:45:35.141Z,74.87
2019-04-25T01:48:13.737Z,80.13
2019-04-25T01:50:56.529Z,72.60
2019-04-25T01:53:41.352Z,76.30
2019-04-25T01:56:22.976Z,73.90
2019-04-25T01:59:05.101Z,69.87
2019-04-25T02:01:44.393Z,83.37
2019-04-25T02:04:29.355Z,77.07
2019-04-25T02:07:10.573Z,70.33
2019-04-25T02:10:00.058Z,70.93
2019-04-25T02:12:47.778Z,76.13
2019-04-25T02:15:33.318Z,79.97
2019-04-25T02:18:16.305Z,80.37
2019-04-25T02:21:01.261Z,82.50
2019-04-25T02:23:48.296Z,87.27
2019-04-25T02:26:34.383Z,79.43
2019-04-25T02:29:16.693Z,80.57
2019-04-25T02:31:59.758Z,77.53
2019-04-25T02:34:38.267Z,69.77
2019-04-25T02:37:25.880Z,75.90
2019-04-25T02:40:08.127Z,76.43
2019-04-25T02:42:50.406Z,71.07
2019-04-25T02:45:45.768Z,66.75
2019-04-25T02:48:40.499Z,63.30
2019-04-25T02:51:38.521Z,65.80
2019-04-25T02:54:19.209Z,61.50
2019-04-25T02:56:59.842Z,61.63
2019-04-25T02:59:41.985Z,55.10
2019-04-25T03:02:24.367Z,53.70
2019-04-25T03:05:06.049Z,55.23
2019-04-25T03:07:47.210Z,63.43
2019-04-25T03:10:32.605Z,54.03
2019-04-25T03:13:15.005Z,52.80
2019-04-25T03:16:00.565Z,53.97
2019-04-25T03:19:02.886Z,55.90
2019-04-25T03:21:45.651Z,50.30
2019-04-25T03:24:25.017Z,57.83
2019-04-25T03:27:05.886Z,49.57
2019-04-25T03:29:47.946Z,50.20
2019-04-25T03:32:31.070Z,64.03
2019-04-25T03:35:09.934Z,49.67
2019-04-25T03:37:51.477Z,49.13
2019-04-25T03:40:35.523Z,59.47
2019-04-25T03:43:16.484Z,85.70
2019-04-25T03:46:00.603Z,66.80
2019-04-25T03:48:41.222Z,57.90
2019-04-25T03:51:24.110Z,84.77
2019-04-25T03:54:07.456Z,59.47
2019-04-25T03:56:53.560Z,64.40
2019-04-25T03:59:30.103Z,51.37
2019-04-25T04:02:15.193Z,46.97
2019-04-25T04:04:56.674Z,47.27
2019-04-25T04:07:38.891Z,56.53
2019-04-25T04:10:23.501Z,50.07
2019-04-25T04:13:07.145Z,47.47
2019-04-25T04:15:50.497Z,51.90
2019-04-25T04:18:41.408Z,50.33
2019-04-25T04:21:30.036Z,62.30
2019-04-25T04:24:19.526Z,61.40
2019-04-25T04:27:19.032Z,56.23
2019-04-25T04:30:01.071Z,116.57
2019-04-25T04:32:44.061Z,71.10
2019-04-25T04:35:27.201Z,53.27
2019-04-25T04:38:09.823Z,51.80
2019-04-25T04:41:01.298Z,89.20
2019-04-25T04:43:44.684Z,59.60
2019-04-25T04:46:30.387Z,68.52
2019-04-25T04:49:15.295Z,52.10
2019-04-25T04:51:59.954Z,158.13
2019-04-25T04:54:49.530Z,85.87
2019-04-25T04:57:34.146Z,53.30
2019-04-25T05:00:15.512Z,64.60
2019-04-25T05:03:04.467Z,44.00
2019-04-25T05:05:55.115Z,59.10
2019-04-25T05:08:40.332Z,59.70
2019-04-25T05:11:23.866Z,43.20
2019-04-25T05:14:11.847Z,39.63
2019-04-25T05:17:05.931Z,43.77
2019-04-25T05:19:47.398Z,52.33
2019-04-25T05:22:33.271Z,43.60
2019-04-25T05:25:19.122Z,47.97
2019-04-25T05:28:03.082Z,45.80
2019-04-25T05:30:54.361Z,39.17
2019-04-25T05:33:38.697Z,35.40
2019-04-25T05:36:23.882Z,48.73
2019-04-25T05:39:05.451Z,53.98
2019-04-25T05:42:04.186Z,43.17
2019-04-25T05:44:49.461Z,35.27
2019-04-25T05:47:30.284Z,35.03
2019-04-25T05:50:10.228Z,33.07
2019-04-25T05:52:51.022Z,35.70
2019-04-25T05:55:37.252Z,34.10
2019-04-25T05:58:20.390Z,32.43
2019-04-25T06:01:05.163Z,41.53
2019-04-25T06:03:49.248Z,55.50
2019-04-25T06:06:34.956Z,39.77
2019-04-25T06:09:26.879Z,38.40
2019-04-25T06:12:36.935Z,34.60
2019-04-25T06:15:18.663Z,35.20
2019-04-25T06:18:30.664Z,34.10
2019-04-25T06:21:23.603Z,41.77
2019-04-25T06:24:19.319Z,32.20
2019-04-25T06:30:37.733Z,47.63
2019-04-25T06:33:29.077Z,39.73
2019-04-25T06:36:11.465Z,58.60
2019-04-25T06:38:52.310Z,43.67
2019-04-25T06:41:37.013Z,43.23
2019-04-25T06:44:34.599Z,36.27
2019-04-25T06:47:31.928Z,34.97
2019-04-25T06:50:17.327Z,38.13
2019-04-25T06:53:00.709Z,37.60
2019-04-25T06:55:45.600Z,38.73
2019-04-25T06:58:28.472Z,37.83
2019-04-25T07:01:13.676Z,62.90
2019-04-25T07:04:00.556Z,49.20
2019-04-25T07:06:41.491Z,39.47
2019-04-25T07:09:24.429Z,36.80
2019-04-25T07:12:10.290Z,35.67
2019-04-25T07:14:53.811Z,40.17
2019-04-25T07:17:37.135Z,38.47
2019-04-25T07:20:21.230Z,37.07
2019-04-25T07:23:13.577Z,37.67
2019-04-25T07:26:26.858Z,43.60
2019-04-25T07:29:20.777Z,39.00
2019-04-25T07:32:17.134Z,37.93
2019-04-25T07:34:56.913Z,38.77
2019-04-25T07:37:41.593Z,36.37
2019-04-25T07:40:21.149Z,38.13
2019-04-25T07:43:06.299Z,38.33
2019-04-25T07:45:49.636Z,41.33
2019-04-25T07:48:33.720Z,42.25
2019-04-25T07:51:18.568Z,40.20
2019-04-25T07:54:10.055Z,38.37
2019-04-25T07:56:46.456Z,36.33
2019-04-25T07:59:30.989Z,38.70
2019-04-25T08:02:13.266Z,39.60
2019-04-25T08:04:58.250Z,37.57
2019-04-25T08:07:43.587Z,36.70
2019-04-25T08:10:24.906Z,35.73
2019-04-25T08:13:11.572Z,40.65
2019-04-25T08:16:00.485Z,37.37
2019-04-25T08:18:45.309Z,38.37
2019-04-25T08:21:26.537Z,38.93
2019-04-25T08:24:10.992Z,41.20
2019-04-25T08:26:49.672Z,42.43
2019-04-25T08:29:36.343Z,40.17
2019-04-25T08:32:15.567Z,39.83
2019-04-25T08:34:59.387Z,45.30
2019-04-25T08:37:44.074Z,42.10
2019-04-25T08:40:25.416Z,41.47
2019-04-25T08:43:06.480Z,40.87
2019-04-25T08:45:48.602Z,40.37
2019-04-25T08:48:33.647Z,36.97
2019-04-25T08:51:18.690Z,34.17
2019-04-25T08:54:03.740Z,32.17
2019-04-25T08:56:45.326Z,33.40
2019-04-25T08:59:47.189Z,36.15
2019-04-25T09:02:40.626Z,33.93
2019-04-25T09:05:37.776Z,32.83
2019-04-25T09:08:23.990Z,32.97
2019-04-25T09:11:04.376Z,36.00
2019-04-25T09:13:45.419Z,34.37
2019-04-25T09:16:28.581Z,32.87
2019-04-25T09:19:11.234Z,32.53
2019-04-25T09:21:50.599Z,35.03
2019-04-25T09:24:31.775Z,36.00
2019-04-25T09:27:13.442Z,34.03
2019-04-25T09:29:55.481Z,34.70
2019-04-25T09:32:37.294Z,35.17
2019-04-25T09:35:20.175Z,31.87
2019-04-25T09:38:06.745Z,32.47
2019-04-25T09:40:48.532Z,35.67
2019-04-25T09:43:31.056Z,37.50
2019-04-25T09:46:17.828Z,39.30
2019-04-25T09:49:15.267Z,37.73
2019-04-25T09:52:24.358Z,35.10
2019-04-25T09:55:27.191Z,34.30
2019-04-25T09:58:17.674Z,36.53
2019-04-25T10:01:00.832Z,35.83
2019-04-25T10:03:43.549Z,36.73
2019-04-25T10:06:26.321Z,35.27
2019-04-25T10:09:08.938Z,39.00
2019-04-25T10:11:51.614Z,38.97
2019-04-25T10:15:11.733Z,41.00
2019-04-25T10:17:52.983Z,38.13
2019-04-25T10:20:49.476Z,43.47
2019-04-25T10:23:34.651Z,37.50
2019-04-25T10:26:17.819Z,38.80
2019-04-25T10:29:00.229Z,38.07
2019-04-25T10:31:44.314Z,36.80
2019-04-25T10:34:27.933Z,38.63
2019-04-25T10:37:09.720Z,42.63
2019-04-25T10:39:55.552Z,39.80
2019-04-25T10:42:44.214Z,40.13
2019-04-25T10:45:31.248Z,39.93
2019-04-25T10:48:19.214Z,41.07
2019-04-25T10:51:04.173Z,39.93
2019-04-25T10:53:46.928Z,40.03
2019-04-25T10:56:33.505Z,43.50
2019-04-25T10:59:16.814Z,42.33
2019-04-25T11:01:57.129Z,39.63
2019-04-25T11:04:51.499Z,39.83
2019-04-25T11:07:37.582Z,65.03
2019-04-25T11:10:23.483Z,52.57
2019-04-25T11:13:05.339Z,48.50
2019-04-25T11:15:45.980Z,46.10
2019-04-25T11:18:29.575Z,46.17
2019-04-25T11:21:13.810Z,76.55
2019-04-25T11:23:57.128Z,64.30
2019-04-25T11:26:40.555Z,55.00
2019-04-25T11:29:27.434Z,55.77
2019-04-25T11:32:13.220Z,55.77
2019-04-25T11:35:05.235Z,51.03
2019-04-25T11:37:55.498Z,54.67
2019-04-25T11:40:51.532Z,49.93
2019-04-25T11:43:43.493Z,58.13
2019-04-25T11:46:24.172Z,60.05
2019-04-25T11:49:08.489Z,49.03
2019-04-25T11:51:56.264Z,44.37
2019-04-25T11:54:38.855Z,51.33
2019-04-25T11:57:23.908Z,67.37
2019-04-25T12:00:21.568Z,57.63
2019-04-25T12:02:54.951Z,49.63
2019-04-25T12:05:42.695Z,51.70
2019-04-25T12:08:37.466Z,47.67
2019-04-25T12:11:25.962Z,50.53
2019-04-25T12:14:11.219Z,67.40
2019-04-25T12:16:56.277Z,56.50
2019-04-25T12:19:39.418Z,52.47
2019-04-25T12:22:24.824Z,49.17
2019-04-25T12:25:08.835Z,47.77
2019-04-25T12:27:55.224Z,44.60
2019-04-25T12:30:47.406Z,46.07
2019-04-25T12:33:32.170Z,45.07
2019-04-25T12:36:17.320Z,51.23
2019-04-25T12:39:01.083Z,46.30
2019-04-25T12:41:48.971Z,45.07
2019-04-25T12:44:51.511Z,48.77
2019-04-25T12:47:38.838Z,46.10
2019-04-25T12:50:19.522Z,55.78
2019-04-25T12:53:03.639Z,135.20
2019-04-25T12:55:45.343Z,123.90
2019-04-25T12:58:27.750Z,108.43
2019-04-25T13:01:24.815Z,82.70
2019-04-25T13:04:14.295Z,62.10
2019-04-25T13:07:05.281Z,57.40
2019-04-25T13:09:55.416Z,102.23
2019-04-25T13:12:37.274Z,141.77
2019-04-25T13:15:21.367Z,103.23
2019-04-25T13:18:20.397Z,78.87
2019-04-25T13:21:11.061Z,74.70
2019-04-25T13:23:58.072Z,59.90
2019-04-25T13:26:48.674Z,58.93
2019-04-25T13:29:58.767Z,56.67
2019-04-25T13:32:57.645Z,53.27
2019-04-25T13:36:02.916Z,53.60
2019-04-25T13:38:50.584Z,52.40
2019-04-25T13:41:33.712Z,53.27
2019-04-25T13:44:26.515Z,55.98
2019-04-25T13:47:14.000Z,52.40
2019-04-25T13:50:03.757Z,101.27
2019-04-25T13:52:54.492Z,78.93
2019-04-25T13:55:42.724Z,63.10
2019-04-25T13:58:30.524Z,57.37
2019-04-25T14:04:35.410Z,55.70
2019-04-25T14:07:22.958Z,55.50
2019-04-25T14:10:23.410Z,55.23
2019-04-25T14:13:28.406Z,54.33
2019-04-25T14:16:25.367Z,52.13
2019-04-25T14:19:25.259Z,48.90
2019-04-25T14:25:12.978Z,46.57
2019-04-25T14:28:17.210Z,48.90
2019-04-25T14:30:59.990Z,51.03
2019-04-25T14:34:03.282Z,62.78
2019-04-25T14:36:51.835Z,51.80
2019-04-25T14:39:44.042Z,55.10
2019-04-25T14:42:26.933Z,54.17
2019-04-25T14:45:13.448Z,54.13
2019-04-25T14:47:54.746Z,51.77
2019-04-25T14:50:40.880Z,47.27
2019-04-25T14:53:30.896Z,44.93
2019-04-25T14:56:25.887Z,65.70
2019-04-25T14:59:11.214Z,137.22
2019-04-25T15:01:56.122Z,87.10
2019-04-25T15:04:40.189Z,60.00
2019-04-25T15:07:37.723Z,46.90
2019-04-25T15:10:34.582Z,46.53
2019-04-25T15:13:26.036Z,44.67
2019-04-25T15:16:29.042Z,58.78
2019-04-25T15:19:18.049Z,58.23
2019-04-25T15:22:07.288Z,80.53
2019-04-25T15:24:54.089Z,79.33
2019-04-25T15:27:42.569Z,70.77
2019-04-25T15:30:35.620Z,54.80
2019-04-25T15:33:31.106Z,48.17
2019-04-25T15:36:37.710Z,40.93
2019-04-25T15:39:45.020Z,41.17
2019-04-25T15:42:59.251Z,38.10
2019-04-25T15:46:29.021Z,41.43
2019-04-25T15:49:43.843Z,45.63
2019-04-25T15:56:15.543Z,38.43
2019-04-25T15:59:21.067Z,110.30
2019-04-25T16:02:08.151Z,73.20
2019-04-25T16:04:51.737Z,55.23
2019-04-25T16:07:35.287Z,49.07
2019-04-25T16:10:19.394Z,48.17
2019-04-25T16:13:02.847Z,50.07
2019-04-25T16:15:45.539Z,45.93
2019-04-25T16:18:27.367Z,44.63
2019-04-25T16:21:12.667Z,44.87
2019-04-25T16:23:59.930Z,46.57
2019-04-25T16:26:39.947Z,44.07
2019-04-25T16:29:27.653Z,42.60
2019-04-25T16:32:20.611Z,40.03
2019-04-25T16:35:04.414Z,39.57
2019-04-25T16:37:46.802Z,45.05
2019-04-25T16:40:31.886Z,43.30
2019-04-25T16:43:34.080Z,38.50
2019-04-25T16:46:27.758Z,36.70
2019-04-25T16:49:14.916Z,38.00
2019-04-25T16:51:59.200Z,40.70
2019-04-25T16:54:44.317Z,44.33
2019-04-25T16:57:32.700Z,42.10
2019-04-25T17:00:15.707Z,42.10
2019-04-25T17:02:55.682Z,47.88
2019-04-25T17:05:40.119Z,45.47
2019-04-25T17:08:26.020Z,43.90
2019-04-25T17:11:09.016Z,49.57
2019-04-25T17:14:01.859Z,43.07
2019-04-25T17:17:04.165Z,38.40
2019-04-25T17:20:04.657Z,35.73
2019-04-25T17:22:49.262Z,35.07
2019-04-25T17:25:31.259Z,35.90
2019-04-25T17:28:15.103Z,33.83
2019-04-25T17:31:06.334Z,34.77
2019-04-25T17:34:17.109Z,35.20
2019-04-25T17:37:18.007Z,34.83
2019-04-25T17:40:02.021Z,35.37
2019-04-25T17:42:48.830Z,36.73
2019-04-25T17:45:34.823Z,38.53
2019-04-25T17:48:16.193Z,184.90
2019-04-25T17:50:59.329Z,98.67
2019-04-25T17:53:43.877Z,54.23
2019-04-25T17:56:28.164Z,47.30
2019-04-25T17:59:09.525Z,46.37
2019-04-25T18:01:54.708Z,42.73
2019-04-25T18:04:44.617Z,39.93
2019-04-25T18:07:31.089Z,42.33
2019-04-25T18:10:12.851Z,39.77
2019-04-25T18:12:56.090Z,36.77
2019-04-25T18:16:01.852Z,33.03
2019-04-25T18:19:01.873Z,30.37
2019-04-25T18:21:45.241Z,39.70
2019-04-25T18:24:59.776Z,33.40
2019-04-25T18:27:54.399Z,32.07
2019-04-25T18:30:41.167Z,31.97
2019-04-25T18:33:34.901Z,33.07
2019-04-25T18:36:38.642Z,32.17
2019-04-25T18:39:28.946Z,35.13
2019-04-25T18:42:29.637Z,32.23
2019-04-25T18:45:10.558Z,30.67
2019-04-25T18:47:51.123Z,37.70
2019-04-25T18:50:36.257Z,33.97
2019-04-25T18:53:39.211Z,33.07
2019-04-25T18:56:38.955Z,32.13
2019-04-25T18:59:40.335Z,34.57
2019-04-25T19:02:39.770Z,33.73
2019-04-25T19:05:39.771Z,35.80
2019-04-25T19:08:24.103Z,35.37
2019-04-25T19:11:09.783Z,34.03
2019-04-25T19:13:51.944Z,42.90
2019-04-25T19:16:34.295Z,37.67
2019-04-25T19:19:18.945Z,39.23
2019-04-25T19:22:01.208Z,36.37
2019-04-25T19:24:47.697Z,37.93
2019-04-25T19:27:32.475Z,37.70
2019-04-25T19:30:15.005Z,41.30
2019-04-25T19:32:54.402Z,37.40
2019-04-25T19:35:36.381Z,39.97
2019-04-25T19:38:20.228Z,44.42
2019-04-25T19:41:18.765Z,39.43
2019-04-25T19:44:08.545Z,41.90
2019-04-25T19:46:53.059Z,42.20
2019-04-25T19:49:37.055Z,40.97
2019-04-25T19:52:21.426Z,44.33
2019-04-25T19:55:00.967Z,43.87
2019-04-25T19:57:42.568Z,44.80
2019-04-25T20:00:28.837Z,43.97
2019-04-25T20:03:22.579Z,48.90
2019-04-25T20:06:11.080Z,42.23
2019-04-25T20:09:07.844Z,42.83
2019-04-25T20:11:53.876Z,43.60
2019-04-25T20:14:36.305Z,43.20
2019-04-25T20:17:22.781Z,45.30
2019-04-25T20:20:06.705Z,45.23
2019-04-25T20:22:50.208Z,46.60
2019-04-25T20:25:32.383Z,43.53
2019-04-25T20:28:14.947Z,41.93
2019-04-25T20:31:02.212Z,45.97
2019-04-25T20:33:45.399Z,42.97
2019-04-25T20:36:25.153Z,46.13
2019-04-25T20:39:07.778Z,44.97
2019-04-25T20:41:53.919Z,46.23
2019-04-25T20:44:38.532Z,46.30
2019-04-25T20:47:21.096Z,43.77
2019-04-25T20:50:04.125Z,48.30
2019-04-25T20:52:47.576Z,45.97
2019-04-25T20:55:31.518Z,44.90
2019-04-25T20:58:17.097Z,48.90
2019-04-25T21:00:58.023Z,47.87
2019-04-25T21:03:37.990Z,44.23
2019-04-25T21:06:23.915Z,43.10
2019-04-25T21:09:07.812Z,44.93
2019-04-25T21:11:53.377Z,43.80
2019-04-25T21:14:46.853Z,45.97
2019-04-25T21:17:34.663Z,46.57
2019-04-25T21:20:13.453Z,46.03
2019-04-25T21:22:55.843Z,44.90
2019-04-25T21:25:42.922Z,52.13
2019-04-25T21:28:21.419Z,44.20
2019-04-25T21:31:03.552Z,44.00
2019-04-25T21:33:47.024Z,44.50
2019-04-25T21:36:33.688Z,42.03
2019-04-25T21:39:28.791Z,42.50
2019-04-25T21:42:25.065Z,44.33
2019-04-25T21:45:06.538Z,53.35
2019-04-25T21:47:48.771Z,47.90
2019-04-25T21:50:30.686Z,43.17
2019-04-25T21:53:16.818Z,52.43
2019-04-25T21:56:01.836Z,46.57
2019-04-25T21:58:45.302Z,45.90
2019-04-25T22:01:27.595Z,44.63
2019-04-25T22:04:08.400Z,45.73
2019-04-25T22:06:56.789Z,45.50
2019-04-25T22:09:37.536Z,44.77
2019-04-25T22:12:20.573Z,44.03
2019-04-25T22:15:01.469Z,43.13
2019-04-25T22:17:44.774Z,42.80
2019-04-25T22:20:29.358Z,48.10
2019-04-25T22:23:13.047Z,44.17
2019-04-25T22:26:00.013Z,44.40
2019-04-25T22:28:45.392Z,44.53
2019-04-25T22:31:30.623Z,41.77
2019-04-25T22:34:19.022Z,43.77
2019-04-25T22:37:00.643Z,47.07
2019-04-25T22:39:43.319Z,47.70
2019-04-25T22:42:28.644Z,42.40
2019-04-25T22:45:12.615Z,45.67
2019-04-25T22:47:56.481Z,56.00
2019-04-25T22:50:37.962Z,46.80
2019-04-25T22:53:24.662Z,45.60
2019-04-25T22:56:05.328Z,46.23
2019-04-25T22:58:46.494Z,48.27
2019-04-25T23:01:45.691Z,45.90
2019-04-25T23:05:04.349Z,45.10
2019-04-25T23:07:34.899Z,53.83
2019-04-25T23:10:16.647Z,48.77
2019-04-25T23:13:00.552Z,47.80
2019-04-25T23:15:44.190Z,57.23
2019-04-25T23:18:26.257Z,49.77
2019-04-25T23:21:08.829Z,49.10
2019-04-25T23:23:53.699Z,49.07
2019-04-25T23:26:43.592Z,52.73
2019-04-25T23:29:26.821Z,47.70
2019-04-25T23:32:11.071Z,53.77
2019-04-25T23:34:56.149Z,60.07
2019-04-25T23:37:41.443Z,54.03
2019-04-25T23:40:22.257Z,50.90
2019-04-25T23:43:00.636Z,63.37
2019-04-25T23:45:46.098Z,52.13
2019-04-25T23:48:32.199Z,49.57
2019-04-25T23:51:17.711Z,54.97
2019-04-25T23:54:04.320Z,54.63
2019-04-25T23:56:48.695Z,58.73
2019-04-25T23:59:33.370Z,54.77
